AAL3112 KMIA-MDPC
Flight info
| Callsign | AAL3112 |
|---|---|
| Flight time | 1h 48m |
| Altitude | 37000 |
| Route | KLADA2 JAGOR RUMFO Y441 JUELE UW38 PTA PETRI BEREL |
| Aircraft | B738/M-VGDW/C |
Departure
| Time | 2026-05-07 14:42 |
|---|---|
| Airport | Miami International Airport (KMIA) |
Arrival
| Time | 2026-05-07 16:30 |
|---|---|
| Airport | Punta Cana International Airport (MDPC) |
| Time | Latitude | Longitude | Altitude | Speed | Heading |
|---|---|---|---|---|---|
| 2026-05-07 12:39 | 25.79834 | -80.28168 | 11 ft | 0 kts | 179° |
| 2026-05-07 14:29 | 25.79848 | -80.28168 | 11 ft | 2 kts | 179° |
| 2026-05-07 14:29 | 25.79864 | -80.28168 | 11 ft | 2 kts | 193° |
| 2026-05-07 14:29 | 25.79877 | -80.28162 | 11 ft | 2 kts | 214° |
| 2026-05-07 14:29 | 25.79888 | -80.28150 | 11 ft | 2 kts | 236° |
| 2026-05-07 14:30 | 25.79895 | -80.28136 | 11 ft | 2 kts | 257° |
| 2026-05-07 14:30 | 25.79896 | -80.28127 | 11 ft | 1 kts | 269° |
| 2026-05-07 14:30 | 25.79896 | -80.28121 | 11 ft | 0 kts | 268° |
| 2026-05-07 14:33 | 25.79896 | -80.28129 | 11 ft | 3 kts | 268° |
| 2026-05-07 14:33 | 25.79896 | -80.28160 | 11 ft | 4 kts | 283° |
| 2026-05-07 14:33 | 25.79920 | -80.28200 | 11 ft | 8 kts | 304° |
| 2026-05-07 14:34 | 25.79954 | -80.28275 | 11 ft | 13 kts | 289° |
| 2026-05-07 14:34 | 25.80027 | -80.28348 | 11 ft | 15 kts | 295° |
| 2026-05-07 14:34 | 25.80027 | -80.28481 | 11 ft | 19 kts | 267° |
| 2026-05-07 14:34 | 25.80019 | -80.28641 | 11 ft | 22 kts | 268° |
| 2026-05-07 14:35 | 25.80017 | -80.28813 | 11 ft | 20 kts | 267° |
| 2026-05-07 14:35 | 25.80008 | -80.28957 | 11 ft | 16 kts | 265° |
| 2026-05-07 14:35 | 25.79996 | -80.29073 | 11 ft | 13 kts | 263° |
| 2026-05-07 14:35 | 25.80002 | -80.29157 | 11 ft | 9 kts | 271° |
| 2026-05-07 14:36 | 25.79999 | -80.29211 | 11 ft | 5 kts | 260° |
| 2026-05-07 14:36 | 25.79996 | -80.29230 | 11 ft | 0 kts | 265° |
| 2026-05-07 14:39 | 25.79995 | -80.29277 | 11 ft | 13 kts | 272° |
| 2026-05-07 14:39 | 25.79992 | -80.29388 | 11 ft | 13 kts | 265° |
| 2026-05-07 14:40 | 25.79984 | -80.29488 | 11 ft | 12 kts | 264° |
| 2026-05-07 14:40 | 25.79978 | -80.29575 | 11 ft | 10 kts | 268° |
| 2026-05-07 14:40 | 25.79976 | -80.29668 | 11 ft | 15 kts | 269° |
| 2026-05-07 14:40 | 25.79974 | -80.29800 | 11 ft | 16 kts | 269° |
| 2026-05-07 14:41 | 25.79971 | -80.29921 | 11 ft | 16 kts | 268° |
| 2026-05-07 14:41 | 25.80002 | -80.30063 | 11 ft | 19 kts | 296° |
| 2026-05-07 14:41 | 25.80073 | -80.30063 | 11 ft | 13 kts | 80° |
| 2026-05-07 14:41 | 25.80082 | -80.29897 | 11 ft | 46 kts | 87° |
| 2026-05-07 14:42 | 25.80109 | -80.29269 | 11 ft | 114 kts | 88° |
| 2026-05-07 14:42 | 25.80154 | -80.28181 | 13 ft | 168 kts | 88° |
| 2026-05-07 14:42 | 25.80223 | -80.26802 | 403 ft | 183 kts | 87° |
| 2026-05-07 14:42 | 25.80326 | -80.25328 | 830 ft | 204 kts | 86° |
| 2026-05-07 14:43 | 25.80378 | -80.23690 | 1288 ft | 222 kts | 99° |
| 2026-05-07 14:43 | 25.79693 | -80.22161 | 1947 ft | 228 kts | 133° |
| 2026-05-07 14:43 | 25.78565 | -80.20931 | 2758 ft | 230 kts | 133° |
| 2026-05-07 14:43 | 25.77540 | -80.19567 | 3147 ft | 239 kts | 128° |
| 2026-05-07 14:44 | 25.76551 | -80.17992 | 3379 ft | 257 kts | 120° |
| 2026-05-07 14:44 | 25.75712 | -80.16198 | 3761 ft | 267 kts | 116° |
| 2026-05-07 14:44 | 25.74893 | -80.14322 | 4425 ft | 273 kts | 116° |
| 2026-05-07 14:44 | 25.74040 | -80.12470 | 5227 ft | 274 kts | 117° |
| 2026-05-07 14:45 | 25.73202 | -80.10543 | 6113 ft | 280 kts | 112° |
| 2026-05-07 14:45 | 25.72504 | -80.08570 | 7135 ft | 280 kts | 109° |
| 2026-05-07 14:45 | 25.71849 | -80.06571 | 8061 ft | 282 kts | 109° |
| 2026-05-07 14:45 | 25.71188 | -80.04523 | 8929 ft | 285 kts | 108° |
| 2026-05-07 14:46 | 25.70512 | -80.02447 | 9772 ft | 288 kts | 108° |
| 2026-05-07 14:46 | 25.69827 | -80.00365 | 10561 ft | 294 kts | 109° |
| 2026-05-07 14:46 | 25.69119 | -79.98224 | 11324 ft | 299 kts | 109° |
| 2026-05-07 14:46 | 25.68401 | -79.96061 | 12057 ft | 303 kts | 109° |
| 2026-05-07 14:47 | 25.67666 | -79.93852 | 12783 ft | 307 kts | 109° |
| 2026-05-07 14:47 | 25.66930 | -79.91639 | 13474 ft | 311 kts | 108° |
| 2026-05-07 14:47 | 25.66176 | -79.89370 | 14115 ft | 316 kts | 108° |
| 2026-05-07 14:47 | 25.65411 | -79.87070 | 14731 ft | 322 kts | 108° |
| 2026-05-07 14:48 | 25.64639 | -79.84749 | 15335 ft | 327 kts | 108° |
| 2026-05-07 14:48 | 25.63849 | -79.82375 | 15822 ft | 336 kts | 108° |
| 2026-05-07 14:48 | 25.63020 | -79.79882 | 16100 ft | 351 kts | 108° |
| 2026-05-07 14:48 | 25.62156 | -79.77285 | 16380 ft | 366 kts | 108° |
| 2026-05-07 14:49 | 25.61260 | -79.74596 | 16647 ft | 381 kts | 108° |
| 2026-05-07 14:49 | 25.60334 | -79.71821 | 17086 ft | 390 kts | 108° |
| 2026-05-07 14:49 | 25.59350 | -79.68997 | 17586 ft | 397 kts | 110° |
| 2026-05-07 14:49 | 25.58216 | -79.66206 | 18134 ft | 402 kts | 113° |
| 2026-05-07 14:50 | 25.56972 | -79.63408 | 18665 ft | 407 kts | 115° |
| 2026-05-07 14:50 | 25.55694 | -79.60620 | 19185 ft | 411 kts | 115° |
| 2026-05-07 14:50 | 25.54396 | -79.57802 | 19704 ft | 415 kts | 115° |
| 2026-05-07 14:50 | 25.53082 | -79.54920 | 20206 ft | 419 kts | 115° |
| 2026-05-07 14:51 | 25.51775 | -79.52034 | 20673 ft | 423 kts | 115° |
| 2026-05-07 14:51 | 25.50460 | -79.49110 | 21146 ft | 427 kts | 115° |
| 2026-05-07 14:51 | 25.49140 | -79.46162 | 21597 ft | 431 kts | 115° |
| 2026-05-07 14:51 | 25.47812 | -79.43189 | 22056 ft | 435 kts | 115° |
| 2026-05-07 14:52 | 25.46482 | -79.40205 | 22480 ft | 439 kts | 115° |
| 2026-05-07 14:52 | 25.45126 | -79.37166 | 22928 ft | 442 kts | 115° |
| 2026-05-07 14:52 | 25.43750 | -79.34081 | 23376 ft | 446 kts | 116° |
| 2026-05-07 14:52 | 25.42392 | -79.31039 | 23797 ft | 449 kts | 116° |
| 2026-05-07 14:53 | 25.41006 | -79.27935 | 24233 ft | 452 kts | 116° |
| 2026-05-07 14:53 | 25.39610 | -79.24812 | 24683 ft | 454 kts | 116° |
| 2026-05-07 14:53 | 25.38217 | -79.21695 | 25055 ft | 458 kts | 116° |
| 2026-05-07 14:53 | 25.36788 | -79.18502 | 25476 ft | 460 kts | 116° |
| 2026-05-07 14:54 | 25.35375 | -79.15347 | 25996 ft | 460 kts | 116° |
| 2026-05-07 14:54 | 25.33977 | -79.12228 | 26541 ft | 458 kts | 116° |
| 2026-05-07 14:54 | 25.32558 | -79.09068 | 27072 ft | 456 kts | 116° |
| 2026-05-07 14:54 | 25.31146 | -79.05922 | 27560 ft | 456 kts | 115° |
| 2026-05-07 14:55 | 25.29754 | -79.02823 | 28029 ft | 455 kts | 115° |
| 2026-05-07 14:55 | 25.28348 | -78.99693 | 28520 ft | 454 kts | 115° |
| 2026-05-07 14:55 | 25.26948 | -78.96578 | 28975 ft | 453 kts | 115° |
| 2026-05-07 14:55 | 25.25549 | -78.93467 | 29422 ft | 452 kts | 115° |
| 2026-05-07 14:56 | 25.24170 | -78.90404 | 29852 ft | 450 kts | 115° |
| 2026-05-07 14:56 | 25.22772 | -78.87302 | 30275 ft | 449 kts | 115° |
| 2026-05-07 14:56 | 25.21386 | -78.84226 | 30705 ft | 448 kts | 115° |
| 2026-05-07 14:56 | 25.19998 | -78.81149 | 31110 ft | 446 kts | 115° |
| 2026-05-07 14:57 | 25.18621 | -78.78097 | 31487 ft | 446 kts | 115° |
| 2026-05-07 14:57 | 25.17244 | -78.75051 | 31862 ft | 444 kts | 115° |
| 2026-05-07 14:57 | 25.15865 | -78.72001 | 32207 ft | 444 kts | 115° |
| 2026-05-07 14:57 | 25.14484 | -78.68947 | 32545 ft | 443 kts | 115° |
| 2026-05-07 14:58 | 25.13108 | -78.65908 | 32885 ft | 442 kts | 115° |
| 2026-05-07 14:58 | 25.11737 | -78.62882 | 33238 ft | 442 kts | 115° |
| 2026-05-07 14:58 | 25.10371 | -78.59868 | 33549 ft | 442 kts | 115° |
| 2026-05-07 14:58 | 25.08978 | -78.56872 | 33848 ft | 442 kts | 116° |
| 2026-05-07 14:59 | 25.07537 | -78.53896 | 34208 ft | 440 kts | 117° |
| 2026-05-07 14:59 | 25.06071 | -78.50932 | 34559 ft | 439 kts | 117° |
| 2026-05-07 14:59 | 25.04601 | -78.47986 | 34887 ft | 438 kts | 117° |
| 2026-05-07 14:59 | 25.03139 | -78.45061 | 35195 ft | 437 kts | 117° |
| 2026-05-07 15:00 | 25.01681 | -78.42142 | 35471 ft | 436 kts | 117° |
| 2026-05-07 15:00 | 25.00219 | -78.39208 | 35735 ft | 436 kts | 117° |
| 2026-05-07 15:00 | 24.98759 | -78.36272 | 35966 ft | 436 kts | 117° |
| 2026-05-07 15:00 | 24.97320 | -78.33372 | 36176 ft | 437 kts | 117° |
| 2026-05-07 15:01 | 24.95860 | -78.30430 | 36335 ft | 439 kts | 117° |
| 2026-05-07 15:01 | 24.94381 | -78.27444 | 36334 ft | 444 kts | 117° |
| 2026-05-07 15:01 | 24.91407 | -78.21443 | 36334 ft | 455 kts | 117° |
| 2026-05-07 15:02 | 24.88329 | -78.15239 | 36330 ft | 465 kts | 117° |
| 2026-05-07 15:02 | 24.85194 | -78.08929 | 36318 ft | 476 kts | 117° |
| 2026-05-07 15:03 | 24.81987 | -78.02483 | 36414 ft | 484 kts | 117° |
| 2026-05-07 15:03 | 24.80363 | -77.99223 | 36597 ft | 486 kts | 117° |
| 2026-05-07 15:03 | 24.78739 | -77.95966 | 36704 ft | 489 kts | 117° |
| 2026-05-07 15:04 | 24.77113 | -77.92706 | 36816 ft | 491 kts | 117° |
| 2026-05-07 15:04 | 24.75479 | -77.89434 | 37031 ft | 491 kts | 117° |
| 2026-05-07 15:04 | 24.72209 | -77.82892 | 37072 ft | 484 kts | 117° |
| 2026-05-07 15:05 | 24.68980 | -77.76443 | 37078 ft | 483 kts | 117° |
| 2026-05-07 15:05 | 24.65656 | -77.69991 | 37078 ft | 491 kts | 120° |
| 2026-05-07 15:06 | 24.61975 | -77.63642 | 37077 ft | 490 kts | 122° |
| 2026-05-07 15:06 | 24.58243 | -77.57440 | 37077 ft | 489 kts | 122° |
| 2026-05-07 15:07 | 24.54500 | -77.51202 | 37080 ft | 489 kts | 122° |
| 2026-05-07 15:07 | 24.50779 | -77.44945 | 37082 ft | 489 kts | 122° |
| 2026-05-07 15:08 | 24.47099 | -77.38721 | 37073 ft | 488 kts | 121° |
| 2026-05-07 15:08 | 24.43409 | -77.32467 | 37067 ft | 488 kts | 122° |
| 2026-05-07 15:09 | 24.39725 | -77.26221 | 37068 ft | 488 kts | 122° |
| 2026-05-07 15:09 | 24.36041 | -77.19984 | 37070 ft | 488 kts | 122° |
| 2026-05-07 15:10 | 24.32344 | -77.13734 | 37068 ft | 488 kts | 122° |
| 2026-05-07 15:10 | 24.28657 | -77.07508 | 37068 ft | 487 kts | 121° |
| 2026-05-07 15:11 | 24.24987 | -77.01318 | 37069 ft | 487 kts | 121° |
| 2026-05-07 15:11 | 24.21297 | -76.95103 | 37069 ft | 487 kts | 121° |
| 2026-05-07 15:12 | 24.17610 | -76.88901 | 37070 ft | 487 kts | 122° |
| 2026-05-07 15:12 | 24.13927 | -76.82713 | 37071 ft | 486 kts | 122° |
| 2026-05-07 15:13 | 24.10223 | -76.76500 | 37069 ft | 487 kts | 121° |
| 2026-05-07 15:13 | 24.06512 | -76.70280 | 37071 ft | 487 kts | 121° |
| 2026-05-07 15:14 | 24.02831 | -76.64121 | 37071 ft | 487 kts | 121° |
| 2026-05-07 15:14 | 23.99131 | -76.57937 | 37071 ft | 485 kts | 121° |
| 2026-05-07 15:15 | 23.95441 | -76.51777 | 37070 ft | 485 kts | 121° |
| 2026-05-07 15:15 | 23.91755 | -76.45630 | 37072 ft | 485 kts | 121° |
| 2026-05-07 15:16 | 23.88057 | -76.39471 | 37069 ft | 486 kts | 121° |
| 2026-05-07 15:16 | 23.84327 | -76.33267 | 37069 ft | 487 kts | 122° |
| 2026-05-07 15:17 | 23.80615 | -76.27099 | 37070 ft | 486 kts | 122° |
| 2026-05-07 15:17 | 23.76918 | -76.20965 | 37072 ft | 486 kts | 122° |
| 2026-05-07 15:18 | 23.73221 | -76.14840 | 37071 ft | 485 kts | 122° |
| 2026-05-07 15:18 | 23.69507 | -76.08692 | 37069 ft | 484 kts | 122° |
| 2026-05-07 15:19 | 23.65806 | -76.02575 | 37070 ft | 484 kts | 122° |
| 2026-05-07 15:19 | 23.62103 | -75.96460 | 37069 ft | 486 kts | 121° |
| 2026-05-07 15:20 | 23.58384 | -75.90328 | 37070 ft | 486 kts | 122° |
| 2026-05-07 15:20 | 23.54660 | -75.84195 | 37071 ft | 485 kts | 122° |
| 2026-05-07 15:21 | 23.50940 | -75.78077 | 37068 ft | 486 kts | 121° |
| 2026-05-07 15:21 | 23.47189 | -75.71914 | 37069 ft | 486 kts | 121° |
| 2026-05-07 15:22 | 23.43483 | -75.65833 | 37069 ft | 486 kts | 121° |
| 2026-05-07 15:22 | 23.39727 | -75.59676 | 37069 ft | 485 kts | 121° |
| 2026-05-07 15:23 | 23.36001 | -75.53577 | 37069 ft | 485 kts | 121° |
| 2026-05-07 15:23 | 23.32271 | -75.47477 | 37069 ft | 486 kts | 121° |
| 2026-05-07 15:24 | 23.28539 | -75.41380 | 37070 ft | 487 kts | 121° |
| 2026-05-07 15:24 | 23.24786 | -75.35259 | 37070 ft | 486 kts | 121° |
| 2026-05-07 15:25 | 23.21044 | -75.29163 | 37070 ft | 486 kts | 122° |
| 2026-05-07 15:25 | 23.17290 | -75.23056 | 37070 ft | 485 kts | 122° |
| 2026-05-07 15:26 | 23.13544 | -75.16966 | 37070 ft | 485 kts | 121° |
| 2026-05-07 15:26 | 23.09811 | -75.10905 | 37070 ft | 485 kts | 121° |
| 2026-05-07 15:27 | 23.05998 | -75.04817 | 37071 ft | 487 kts | 122° |
| 2026-05-07 15:27 | 23.02113 | -74.98830 | 37070 ft | 487 kts | 123° |
| 2026-05-07 15:28 | 22.98189 | -74.92840 | 37070 ft | 487 kts | 123° |
| 2026-05-07 15:28 | 22.94275 | -74.86858 | 37070 ft | 487 kts | 123° |
| 2026-05-07 15:29 | 22.90381 | -74.80892 | 37070 ft | 487 kts | 123° |
| 2026-05-07 15:29 | 22.86476 | -74.74904 | 37070 ft | 486 kts | 122° |
| 2026-05-07 15:30 | 22.82604 | -74.68966 | 37070 ft | 486 kts | 122° |
| 2026-05-07 15:30 | 22.78694 | -74.62975 | 37070 ft | 485 kts | 122° |
| 2026-05-07 15:31 | 22.74797 | -74.57012 | 37070 ft | 486 kts | 122° |
| 2026-05-07 15:31 | 22.70896 | -74.51049 | 37070 ft | 486 kts | 122° |
| 2026-05-07 15:32 | 22.66997 | -74.45097 | 37070 ft | 486 kts | 122° |
| 2026-05-07 15:32 | 22.63104 | -74.39159 | 37070 ft | 486 kts | 122° |
| 2026-05-07 15:33 | 22.59185 | -74.33189 | 37070 ft | 486 kts | 123° |
| 2026-05-07 15:33 | 22.55275 | -74.27241 | 37070 ft | 485 kts | 123° |
| 2026-05-07 15:34 | 22.51364 | -74.21298 | 37070 ft | 486 kts | 123° |
| 2026-05-07 15:34 | 22.47468 | -74.15383 | 37070 ft | 486 kts | 123° |
| 2026-05-07 15:35 | 22.43544 | -74.09433 | 37070 ft | 486 kts | 122° |
| 2026-05-07 15:35 | 22.39631 | -74.03507 | 37070 ft | 486 kts | 122° |
| 2026-05-07 15:36 | 22.35703 | -73.97566 | 37070 ft | 485 kts | 123° |
| 2026-05-07 15:36 | 22.31793 | -73.91656 | 37070 ft | 485 kts | 122° |
| 2026-05-07 15:37 | 22.27888 | -73.85761 | 37071 ft | 485 kts | 122° |
| 2026-05-07 15:37 | 22.23941 | -73.79808 | 37070 ft | 485 kts | 122° |
| 2026-05-07 15:38 | 22.20024 | -73.73909 | 37070 ft | 484 kts | 122° |
| 2026-05-07 15:38 | 22.16125 | -73.68042 | 37071 ft | 484 kts | 122° |
| 2026-05-07 15:39 | 22.12187 | -73.62124 | 37070 ft | 485 kts | 122° |
| 2026-05-07 15:39 | 22.08284 | -73.56264 | 37070 ft | 484 kts | 122° |
| 2026-05-07 15:40 | 22.04341 | -73.50352 | 37071 ft | 483 kts | 122° |
| 2026-05-07 15:40 | 22.00443 | -73.44513 | 37069 ft | 483 kts | 122° |
| 2026-05-07 15:41 | 21.96517 | -73.38637 | 37070 ft | 484 kts | 122° |
| 2026-05-07 15:41 | 21.92597 | -73.32778 | 37068 ft | 483 kts | 122° |
| 2026-05-07 15:42 | 21.88653 | -73.26890 | 37068 ft | 483 kts | 122° |
| 2026-05-07 15:42 | 21.84728 | -73.21035 | 37064 ft | 483 kts | 122° |
| 2026-05-07 15:43 | 21.80813 | -73.15202 | 37064 ft | 482 kts | 122° |
| 2026-05-07 15:43 | 21.76901 | -73.09380 | 37064 ft | 483 kts | 122° |
| 2026-05-07 15:44 | 21.72952 | -73.03507 | 37063 ft | 482 kts | 122° |
| 2026-05-07 15:44 | 21.69027 | -72.97679 | 37064 ft | 483 kts | 122° |
| 2026-05-07 15:45 | 21.65106 | -72.91863 | 37064 ft | 482 kts | 122° |
| 2026-05-07 15:45 | 21.61183 | -72.86050 | 37063 ft | 481 kts | 122° |
| 2026-05-07 15:46 | 21.55279 | -72.77311 | 37059 ft | 482 kts | 122° |
| 2026-05-07 15:47 | 21.51328 | -72.71471 | 37060 ft | 483 kts | 121° |
| 2026-05-07 15:47 | 21.47398 | -72.65668 | 37060 ft | 483 kts | 122° |
| 2026-05-07 15:48 | 21.43445 | -72.59838 | 37059 ft | 482 kts | 121° |
| 2026-05-07 15:48 | 21.39523 | -72.54060 | 37055 ft | 482 kts | 121° |
| 2026-05-07 15:49 | 21.35566 | -72.48238 | 37053 ft | 482 kts | 121° |
| 2026-05-07 15:49 | 21.31627 | -72.42446 | 37057 ft | 482 kts | 121° |
| 2026-05-07 15:50 | 21.27668 | -72.36632 | 37058 ft | 482 kts | 121° |
| 2026-05-07 15:50 | 21.23709 | -72.30823 | 37058 ft | 482 kts | 122° |
| 2026-05-07 15:51 | 21.19764 | -72.25040 | 37055 ft | 482 kts | 122° |
| 2026-05-07 15:51 | 21.15807 | -72.19248 | 37056 ft | 483 kts | 122° |
| 2026-05-07 15:52 | 21.11865 | -72.13483 | 37053 ft | 482 kts | 122° |
| 2026-05-07 15:52 | 21.07898 | -72.07687 | 37050 ft | 484 kts | 121° |
| 2026-05-07 15:53 | 21.03908 | -72.01866 | 37052 ft | 483 kts | 121° |
| 2026-05-07 15:53 | 20.99961 | -71.96113 | 37049 ft | 482 kts | 121° |
| 2026-05-07 15:54 | 20.95991 | -71.90330 | 37050 ft | 482 kts | 121° |
| 2026-05-07 15:54 | 20.92033 | -71.84571 | 37047 ft | 482 kts | 121° |
| 2026-05-07 15:55 | 20.88072 | -71.78812 | 37049 ft | 482 kts | 121° |
| 2026-05-07 15:55 | 20.84092 | -71.73031 | 37047 ft | 483 kts | 121° |
| 2026-05-07 15:56 | 20.80114 | -71.67264 | 37046 ft | 482 kts | 121° |
| 2026-05-07 15:56 | 20.76129 | -71.61488 | 37049 ft | 482 kts | 121° |
| 2026-05-07 15:57 | 20.72154 | -71.55731 | 37046 ft | 483 kts | 121° |
| 2026-05-07 15:57 | 20.68178 | -71.49983 | 37044 ft | 482 kts | 121° |
| 2026-05-07 15:58 | 20.64196 | -71.44228 | 37048 ft | 482 kts | 121° |
| 2026-05-07 15:58 | 20.60215 | -71.38482 | 37047 ft | 483 kts | 121° |
| 2026-05-07 15:59 | 20.56226 | -71.32731 | 37047 ft | 483 kts | 121° |
| 2026-05-07 15:59 | 20.52222 | -71.26965 | 37045 ft | 483 kts | 121° |
| 2026-05-07 16:00 | 20.48244 | -71.21241 | 37047 ft | 483 kts | 121° |
| 2026-05-07 16:00 | 20.44248 | -71.15498 | 37049 ft | 482 kts | 121° |
| 2026-05-07 16:01 | 20.40203 | -71.09760 | 37046 ft | 484 kts | 123° |
| 2026-05-07 16:01 | 20.35889 | -71.04273 | 37049 ft | 487 kts | 126° |
| 2026-05-07 16:02 | 20.31414 | -70.98854 | 37050 ft | 487 kts | 126° |
| 2026-05-07 16:02 | 20.26948 | -70.93446 | 37048 ft | 486 kts | 126° |
| 2026-05-07 16:03 | 20.22496 | -70.88005 | 37049 ft | 486 kts | 126° |
| 2026-05-07 16:03 | 20.18094 | -70.82591 | 37049 ft | 486 kts | 125° |
| 2026-05-07 16:04 | 20.13676 | -70.77141 | 37050 ft | 486 kts | 125° |
| 2026-05-07 16:04 | 20.09265 | -70.71699 | 37050 ft | 485 kts | 125° |
| 2026-05-07 16:05 | 20.04861 | -70.66271 | 37051 ft | 485 kts | 125° |
| 2026-05-07 16:05 | 20.00454 | -70.60839 | 37053 ft | 484 kts | 125° |
| 2026-05-07 16:06 | 19.96053 | -70.55422 | 37055 ft | 485 kts | 125° |
| 2026-05-07 16:06 | 19.91640 | -70.49994 | 37059 ft | 487 kts | 125° |
| 2026-05-07 16:07 | 19.87214 | -70.44557 | 37064 ft | 484 kts | 125° |
| 2026-05-07 16:07 | 19.82808 | -70.39153 | 37061 ft | 485 kts | 125° |
| 2026-05-07 16:08 | 19.78392 | -70.33740 | 37060 ft | 484 kts | 125° |
| 2026-05-07 16:08 | 19.73997 | -70.28357 | 37056 ft | 486 kts | 125° |
| 2026-05-07 16:09 | 19.69551 | -70.22916 | 37067 ft | 487 kts | 125° |
| 2026-05-07 16:09 | 19.65138 | -70.17525 | 37067 ft | 484 kts | 125° |
| 2026-05-07 16:10 | 19.60732 | -70.12144 | 37070 ft | 485 kts | 125° |
| 2026-05-07 16:10 | 19.56313 | -70.06750 | 37063 ft | 484 kts | 125° |
| 2026-05-07 16:11 | 19.51901 | -70.01372 | 37057 ft | 486 kts | 125° |
| 2026-05-07 16:11 | 19.47479 | -69.95986 | 37048 ft | 484 kts | 125° |
| 2026-05-07 16:12 | 19.43058 | -69.90608 | 36503 ft | 485 kts | 125° |
| 2026-05-07 16:12 | 19.40850 | -69.87917 | 35570 ft | 489 kts | 125° |
| 2026-05-07 16:12 | 19.38612 | -69.85191 | 34684 ft | 490 kts | 125° |
| 2026-05-07 16:12 | 19.36395 | -69.82494 | 33809 ft | 492 kts | 125° |
| 2026-05-07 16:13 | 19.34159 | -69.79775 | 32933 ft | 493 kts | 125° |
| 2026-05-07 16:13 | 19.31888 | -69.77015 | 32071 ft | 495 kts | 126° |
| 2026-05-07 16:13 | 19.29669 | -69.74282 | 31185 ft | 497 kts | 124° |
| 2026-05-07 16:13 | 19.27548 | -69.71380 | 30265 ft | 497 kts | 121° |
| 2026-05-07 16:14 | 19.25631 | -69.68386 | 29339 ft | 498 kts | 118° |
| 2026-05-07 16:14 | 19.23826 | -69.65270 | 28652 ft | 493 kts | 117° |
| 2026-05-07 16:14 | 19.22108 | -69.62122 | 27986 ft | 489 kts | 116° |
| 2026-05-07 16:14 | 19.20479 | -69.59036 | 27296 ft | 487 kts | 115° |
| 2026-05-07 16:15 | 19.18844 | -69.55889 | 26568 ft | 484 kts | 115° |
| 2026-05-07 16:15 | 19.17246 | -69.52794 | 25847 ft | 482 kts | 115° |
| 2026-05-07 16:15 | 19.15655 | -69.49711 | 25135 ft | 480 kts | 115° |
| 2026-05-07 16:15 | 19.14062 | -69.46635 | 24409 ft | 477 kts | 115° |
| 2026-05-07 16:16 | 19.12467 | -69.43567 | 23680 ft | 475 kts | 115° |
| 2026-05-07 16:16 | 19.10873 | -69.40513 | 22945 ft | 473 kts | 115° |
| 2026-05-07 16:16 | 19.09289 | -69.37483 | 22219 ft | 470 kts | 115° |
| 2026-05-07 16:16 | 19.07719 | -69.34486 | 21521 ft | 468 kts | 115° |
| 2026-05-07 16:17 | 19.06136 | -69.31471 | 20790 ft | 466 kts | 116° |
| 2026-05-07 16:17 | 19.04584 | -69.28516 | 20068 ft | 465 kts | 116° |
| 2026-05-07 16:17 | 19.03003 | -69.25514 | 19314 ft | 462 kts | 116° |
| 2026-05-07 16:17 | 19.01474 | -69.22613 | 18542 ft | 453 kts | 117° |
| 2026-05-07 16:18 | 18.99970 | -69.19767 | 17851 ft | 435 kts | 117° |
| 2026-05-07 16:18 | 18.98519 | -69.17018 | 17161 ft | 419 kts | 117° |
| 2026-05-07 16:18 | 18.97132 | -69.14391 | 16504 ft | 405 kts | 117° |
| 2026-05-07 16:18 | 18.95797 | -69.11861 | 15850 ft | 392 kts | 117° |
| 2026-05-07 16:19 | 18.94481 | -69.09366 | 15224 ft | 379 kts | 118° |
| 2026-05-07 16:19 | 18.93225 | -69.06982 | 14625 ft | 367 kts | 118° |
| 2026-05-07 16:19 | 18.92013 | -69.04686 | 14042 ft | 357 kts | 118° |
| 2026-05-07 16:19 | 18.90803 | -69.02392 | 13462 ft | 358 kts | 118° |
| 2026-05-07 16:20 | 18.89592 | -69.00096 | 13064 ft | 364 kts | 118° |
| 2026-05-07 16:20 | 18.88386 | -68.97815 | 12856 ft | 346 kts | 118° |
| 2026-05-07 16:20 | 18.87242 | -68.95657 | 12726 ft | 322 kts | 118° |
| 2026-05-07 16:20 | 18.86187 | -68.93666 | 12591 ft | 302 kts | 118° |
| 2026-05-07 16:21 | 18.85202 | -68.91804 | 12468 ft | 283 kts | 118° |
| 2026-05-07 16:21 | 18.84255 | -68.90015 | 12360 ft | 281 kts | 118° |
| 2026-05-07 16:21 | 18.83267 | -68.88149 | 12306 ft | 296 kts | 119° |
| 2026-05-07 16:21 | 18.82124 | -68.86310 | 12566 ft | 304 kts | 125° |
| 2026-05-07 16:22 | 18.80807 | -68.84499 | 12776 ft | 314 kts | 128° |
| 2026-05-07 16:22 | 18.79428 | -68.82697 | 12639 ft | 315 kts | 128° |
| 2026-05-07 16:22 | 18.78054 | -68.80918 | 12411 ft | 312 kts | 128° |
| 2026-05-07 16:22 | 18.76703 | -68.79158 | 12158 ft | 305 kts | 128° |
| 2026-05-07 16:23 | 18.75389 | -68.77429 | 11903 ft | 299 kts | 128° |
| 2026-05-07 16:23 | 18.74094 | -68.75716 | 11638 ft | 296 kts | 127° |
| 2026-05-07 16:23 | 18.72807 | -68.74007 | 11287 ft | 297 kts | 127° |
| 2026-05-07 16:23 | 18.71540 | -68.72324 | 10799 ft | 292 kts | 127° |
| 2026-05-07 16:24 | 18.70299 | -68.70675 | 10308 ft | 287 kts | 127° |
| 2026-05-07 16:24 | 18.69051 | -68.69015 | 9822 ft | 284 kts | 127° |
| 2026-05-07 16:24 | 18.67835 | -68.67395 | 9365 ft | 282 kts | 127° |
| 2026-05-07 16:24 | 18.66623 | -68.65777 | 8883 ft | 279 kts | 127° |
| 2026-05-07 16:25 | 18.65428 | -68.64184 | 8398 ft | 276 kts | 127° |
| 2026-05-07 16:25 | 18.64255 | -68.62622 | 7918 ft | 272 kts | 127° |
| 2026-05-07 16:25 | 18.63084 | -68.61063 | 7439 ft | 266 kts | 127° |
| 2026-05-07 16:25 | 18.61942 | -68.59555 | 6968 ft | 261 kts | 129° |
| 2026-05-07 16:26 | 18.60537 | -68.58367 | 6451 ft | 259 kts | 150° |
| 2026-05-07 16:26 | 18.58995 | -68.57458 | 5963 ft | 253 kts | 146° |
| 2026-05-07 16:26 | 18.57552 | -68.56413 | 5485 ft | 249 kts | 142° |
| 2026-05-07 16:26 | 18.56634 | -68.55706 | 5169 ft | 246 kts | 142° |
| 2026-05-07 16:27 | 18.54833 | -68.54267 | 4531 ft | 241 kts | 135° |
| 2026-05-07 16:27 | 18.53878 | -68.52861 | 4042 ft | 235 kts | 108° |
| 2026-05-07 16:27 | 18.53686 | -68.51180 | 3567 ft | 231 kts | 82° |
| 2026-05-07 16:27 | 18.54109 | -68.49563 | 3159 ft | 228 kts | 74° |
| 2026-05-07 16:28 | 18.54508 | -68.47978 | 2598 ft | 225 kts | 78° |
| 2026-05-07 16:28 | 18.54808 | -68.46386 | 1780 ft | 225 kts | 80° |
| 2026-05-07 16:28 | 18.55216 | -68.44870 | 1401 ft | 206 kts | 72° |
| 2026-05-07 16:28 | 18.55685 | -68.43509 | 1148 ft | 184 kts | 71° |
| 2026-05-07 16:29 | 18.56101 | -68.42318 | 864 ft | 165 kts | 73° |
| 2026-05-07 16:29 | 18.56351 | -68.41202 | 592 ft | 152 kts | 84° |
| 2026-05-07 16:29 | 18.56403 | -68.40125 | 417 ft | 146 kts | 86° |
| 2026-05-07 16:29 | 18.56515 | -68.39062 | 273 ft | 143 kts | 86° |
| 2026-05-07 16:30 | 18.56609 | -68.38033 | 118 ft | 139 kts | 89° |
| 2026-05-07 16:30 | 18.56680 | -68.37051 | 44 ft | 128 kts | 85° |
| 2026-05-07 16:30 | 18.56746 | -68.36259 | 37 ft | 84 kts | 85° |
| 2026-05-07 16:30 | 18.56779 | -68.35863 | 35 ft | 25 kts | 89° |
| 2026-05-07 16:31 | 18.56686 | -68.35783 | 37 ft | 14 kts | 175° |
| 2026-05-07 16:31 | 18.56613 | -68.35777 | 38 ft | 8 kts | 174° |
| 2026-05-07 16:31 | 18.56519 | -68.35812 | 37 ft | 23 kts | 256° |
| 2026-05-07 16:31 | 18.56499 | -68.35986 | 37 ft | 23 kts | 264° |
| 2026-05-07 16:32 | 18.56485 | -68.36153 | 37 ft | 22 kts | 264° |
| 2026-05-07 16:32 | 18.56469 | -68.36310 | 37 ft | 21 kts | 265° |
| 2026-05-07 16:32 | 18.56536 | -68.36409 | 39 ft | 15 kts | 318° |
| 2026-05-07 16:32 | 18.56545 | -68.36517 | 40 ft | 18 kts | 265° |
| 2026-05-07 16:33 | 18.56533 | -68.36672 | 40 ft | 21 kts | 264° |
| 2026-05-07 16:33 | 18.56521 | -68.36820 | 43 ft | 18 kts | 264° |